sensor_id;sensor_type;location;lat;lon;timestamp;P1;durP1;ratioP1;P2;durP2;ratioP2
27957;SDS011;15295;42.658;23.374;2023-02-28T00:01:46;34.10;;;20.10;;
27957;SDS011;15295;42.658;23.374;2023-02-28T00:04:21;47.30;;;22.15;;
27957;SDS011;15295;42.658;23.374;2023-02-28T00:06:56;38.20;;;20.63;;
27957;SDS011;15295;42.658;23.374;2023-02-28T00:09:24;40.30;;;21.85;;
27957;SDS011;15295;42.658;23.374;2023-02-28T00:12:01;38.45;;;20.67;;
27957;SDS011;15295;42.658;23.374;2023-02-28T00:14:53;37.88;;;20.45;;
27957;SDS011;15295;42.658;23.374;2023-02-28T00:17:31;40.10;;;21.20;;
27957;SDS011;15295;42.658;23.374;2023-02-28T00:20:30;40.85;;;20.63;;
27957;SDS011;15295;42.658;23.374;2023-02-28T00:23:30;40.13;;;21.35;;
27957;SDS011;15295;42.658;23.374;2023-02-28T00:26:04;40.67;;;21.10;;
27957;SDS011;15295;42.658;23.374;2023-02-28T00:28:51;40.42;;;22.38;;
27957;SDS011;15295;42.658;23.374;2023-02-28T00:31:52;37.67;;;20.80;;
27957;SDS011;15295;42.658;23.374;2023-02-28T00:34:36;38.38;;;20.25;;
27957;SDS011;15295;42.658;23.374;2023-02-28T00:37:16;35.00;;;20.02;;
27957;SDS011;15295;42.658;23.374;2023-02-28T00:39:42;39.72;;;21.25;;
27957;SDS011;15295;42.658;23.374;2023-02-28T00:42:08;40.85;;;21.02;;
27957;SDS011;15295;42.658;23.374;2023-02-28T00:44:35;41.45;;;22.58;;
27957;SDS011;15295;42.658;23.374;2023-02-28T00:47:02;35.95;;;20.45;;
27957;SDS011;15295;42.658;23.374;2023-02-28T00:49:31;43.33;;;20.65;;
27957;SDS011;15295;42.658;23.374;2023-02-28T00:52:01;37.00;;;20.30;;
27957;SDS011;15295;42.658;23.374;2023-02-28T00:54:26;36.92;;;20.55;;
27957;SDS011;15295;42.658;23.374;2023-02-28T00:57:01;37.40;;;20.48;;
27957;SDS011;15295;42.658;23.374;2023-02-28T00:59:26;37.20;;;20.48;;
27957;SDS011;15295;42.658;23.374;2023-02-28T01:02:07;39.47;;;21.50;;
27957;SDS011;15295;42.658;23.374;2023-02-28T01:04:37;36.33;;;21.05;;
27957;SDS011;15295;42.658;23.374;2023-02-28T01:07:19;36.72;;;21.63;;
27957;SDS011;15295;42.658;23.374;2023-02-28T01:09:49;38.92;;;22.05;;
27957;SDS011;15295;42.658;23.374;2023-02-28T01:12:19;37.53;;;22.30;;
27957;SDS011;15295;42.658;23.374;2023-02-28T01:15:20;34.95;;;21.15;;
27957;SDS011;15295;42.658;23.374;2023-02-28T01:17:50;42.45;;;24.27;;
27957;SDS011;15295;42.658;23.374;2023-02-28T01:20:16;44.20;;;25.15;;
27957;SDS011;15295;42.658;23.374;2023-02-28T01:22:46;39.95;;;22.52;;
27957;SDS011;15295;42.658;23.374;2023-02-28T01:25:24;42.05;;;22.00;;
27957;SDS011;15295;42.658;23.374;2023-02-28T01:27:53;45.72;;;22.63;;
27957;SDS011;15295;42.658;23.374;2023-02-28T01:30:24;41.67;;;22.73;;
27957;SDS011;15295;42.658;23.374;2023-02-28T01:32:51;41.60;;;23.35;;
27957;SDS011;15295;42.658;23.374;2023-02-28T01:35:21;42.97;;;23.40;;
27957;SDS011;15295;42.658;23.374;2023-02-28T01:37:54;42.42;;;23.42;;
27957;SDS011;15295;42.658;23.374;2023-02-28T01:40:31;39.55;;;21.45;;
27957;SDS011;15295;42.658;23.374;2023-02-28T01:45:56;41.20;;;22.23;;
27957;SDS011;15295;42.658;23.374;2023-02-28T01:48:31;39.13;;;22.52;;
27957;SDS011;15295;42.658;23.374;2023-02-28T01:54:05;38.90;;;21.48;;
27957;SDS011;15295;42.658;23.374;2023-02-28T01:56:47;38.25;;;20.73;;
27957;SDS011;15295;42.658;23.374;2023-02-28T01:59:22;35.28;;;20.55;;
27957;SDS011;15295;42.658;23.374;2023-02-28T02:07:38;40.63;;;22.55;;
27957;SDS011;15295;42.658;23.374;2023-02-28T02:10:15;43.05;;;23.10;;
27957;SDS011;15295;42.658;23.374;2023-02-28T02:15:54;45.30;;;24.25;;
27957;SDS011;15295;42.658;23.374;2023-02-28T02:18:33;42.60;;;24.25;;
27957;SDS011;15295;42.658;23.374;2023-02-28T02:28:19;47.97;;;25.15;;
27957;SDS011;15295;42.658;23.374;2023-02-28T02:31:25;46.88;;;25.40;;
27957;SDS011;15295;42.658;23.374;2023-02-28T02:37:25;46.08;;;24.67;;
27957;SDS011;15295;42.658;23.374;2023-02-28T02:48:16;43.88;;;25.67;;
27957;SDS011;15295;42.658;23.374;2023-02-28T02:51:14;44.72;;;24.33;;
27957;SDS011;15295;42.658;23.374;2023-02-28T02:54:07;42.90;;;23.10;;
27957;SDS011;15295;42.658;23.374;2023-02-28T02:56:46;44.05;;;24.13;;
27957;SDS011;15295;42.658;23.374;2023-02-28T02:59:15;46.10;;;24.23;;
27957;SDS011;15295;42.658;23.374;2023-02-28T03:02:03;46.22;;;25.48;;
27957;SDS011;15295;42.658;23.374;2023-02-28T03:04:40;44.70;;;24.95;;
27957;SDS011;15295;42.658;23.374;2023-02-28T03:07:32;49.45;;;25.85;;
27957;SDS011;15295;42.658;23.374;2023-02-28T03:09:58;44.10;;;24.40;;
27957;SDS011;15295;42.658;23.374;2023-02-28T03:13:05;48.83;;;25.15;;
27957;SDS011;15295;42.658;23.374;2023-02-28T03:25:27;50.53;;;27.27;;
27957;SDS011;15295;42.658;23.374;2023-02-28T03:28:54;54.30;;;28.23;;
27957;SDS011;15295;42.658;23.374;2023-02-28T03:31:30;59.40;;;29.63;;
27957;SDS011;15295;42.658;23.374;2023-02-28T03:37:16;57.95;;;28.65;;
27957;SDS011;15295;42.658;23.374;2023-02-28T03:39:56;59.63;;;29.80;;
27957;SDS011;15295;42.658;23.374;2023-02-28T03:42:39;59.15;;;28.52;;
27957;SDS011;15295;42.658;23.374;2023-02-28T03:45:21;63.70;;;31.33;;
27957;SDS011;15295;42.658;23.374;2023-02-28T03:48:08;61.75;;;29.83;;
27957;SDS011;15295;42.658;23.374;2023-02-28T03:51:21;59.30;;;28.67;;
27957;SDS011;15295;42.658;23.374;2023-02-28T03:53:52;60.65;;;30.20;;
27957;SDS011;15295;42.658;23.374;2023-02-28T03:56:36;86.65;;;30.50;;
27957;SDS011;15295;42.658;23.374;2023-02-28T03:59:13;62.08;;;30.35;;
27957;SDS011;15295;42.658;23.374;2023-02-28T04:01:56;71.10;;;31.17;;
27957;SDS011;15295;42.658;23.374;2023-02-28T04:04:40;63.55;;;29.95;;
27957;SDS011;15295;42.658;23.374;2023-02-28T04:07:13;64.75;;;31.05;;
27957;SDS011;15295;42.658;23.374;2023-02-28T04:09:41;64.60;;;31.33;;
27957;SDS011;15295;42.658;23.374;2023-02-28T04:12:09;61.33;;;30.83;;
27957;SDS011;15295;42.658;23.374;2023-02-28T04:14:42;67.22;;;31.20;;
27957;SDS011;15295;42.658;23.374;2023-02-28T04:17:54;63.25;;;30.95;;
27957;SDS011;15295;42.658;23.374;2023-02-28T04:20:42;58.50;;;28.08;;
27957;SDS011;15295;42.658;23.374;2023-02-28T04:23:23;57.00;;;28.33;;
27957;SDS011;15295;42.658;23.374;2023-02-28T04:25:58;60.30;;;27.85;;
27957;SDS011;15295;42.658;23.374;2023-02-28T04:31:03;62.22;;;29.95;;
27957;SDS011;15295;42.658;23.374;2023-02-28T04:33:38;62.33;;;30.00;;
27957;SDS011;15295;42.658;23.374;2023-02-28T04:42:10;68.20;;;30.98;;
27957;SDS011;15295;42.658;23.374;2023-02-28T04:45:06;70.65;;;32.22;;
27957;SDS011;15295;42.658;23.374;2023-02-28T04:47:38;70.03;;;34.13;;
27957;SDS011;15295;42.658;23.374;2023-02-28T04:50:05;71.13;;;34.25;;
27957;SDS011;15295;42.658;23.374;2023-02-28T04:52:36;95.30;;;37.35;;
27957;SDS011;15295;42.658;23.374;2023-02-28T04:55:03;85.38;;;39.28;;
27957;SDS011;15295;42.658;23.374;2023-02-28T04:57:32;85.18;;;39.75;;
27957;SDS011;15295;42.658;23.374;2023-02-28T05:00:03;96.18;;;42.22;;
27957;SDS011;15295;42.658;23.374;2023-02-28T05:02:33;100.03;;;44.10;;
27957;SDS011;15295;42.658;23.374;2023-02-28T05:05:03;97.82;;;44.17;;
27957;SDS011;15295;42.658;23.374;2023-02-28T05:07:29;97.13;;;42.30;;
27957;SDS011;15295;42.658;23.374;2023-02-28T05:09:57;91.57;;;41.20;;
27957;SDS011;15295;42.658;23.374;2023-02-28T05:12:50;87.28;;;40.03;;
27957;SDS011;15295;42.658;23.374;2023-02-28T05:15:18;88.35;;;41.55;;
27957;SDS011;15295;42.658;23.374;2023-02-28T05:17:46;90.68;;;42.42;;
27957;SDS011;15295;42.658;23.374;2023-02-28T05:26:00;91.85;;;37.75;;
27957;SDS011;15295;42.658;23.374;2023-02-28T05:28:26;87.75;;;39.40;;
27957;SDS011;15295;42.658;23.374;2023-02-28T05:30:51;82.25;;;39.25;;
27957;SDS011;15295;42.658;23.374;2023-02-28T05:33:20;88.35;;;39.67;;
27957;SDS011;15295;42.658;23.374;2023-02-28T05:35:45;90.97;;;39.47;;
27957;SDS011;15295;42.658;23.374;2023-02-28T05:38:11;80.82;;;38.92;;
27957;SDS011;15295;42.658;23.374;2023-02-28T05:43:26;88.53;;;38.10;;
27957;SDS011;15295;42.658;23.374;2023-02-28T05:49:23;91.53;;;39.70;;
27957;SDS011;15295;42.658;23.374;2023-02-28T05:51:51;96.00;;;39.60;;
27957;SDS011;15295;42.658;23.374;2023-02-28T05:54:29;90.63;;;41.33;;
27957;SDS011;15295;42.658;23.374;2023-02-28T05:57:01;90.30;;;41.00;;
27957;SDS011;15295;42.658;23.374;2023-02-28T06:00:10;99.18;;;41.85;;
27957;SDS011;15295;42.658;23.374;2023-02-28T06:02:42;90.45;;;40.13;;
27957;SDS011;15295;42.658;23.374;2023-02-28T06:05:21;73.35;;;34.22;;
27957;SDS011;15295;42.658;23.374;2023-02-28T06:07:49;82.60;;;37.22;;
27957;SDS011;15295;42.658;23.374;2023-02-28T06:10:24;90.45;;;37.53;;
27957;SDS011;15295;42.658;23.374;2023-02-28T06:12:59;83.63;;;37.35;;
27957;SDS011;15295;42.658;23.374;2023-02-28T06:15:42;70.13;;;34.70;;
27957;SDS011;15295;42.658;23.374;2023-02-28T06:18:10;78.28;;;35.38;;
27957;SDS011;15295;42.658;23.374;2023-02-28T06:20:41;79.60;;;36.05;;
27957;SDS011;15295;42.658;23.374;2023-02-28T06:23:17;68.68;;;33.53;;
27957;SDS011;15295;42.658;23.374;2023-02-28T06:25:46;71.75;;;34.63;;
27957;SDS011;15295;42.658;23.374;2023-02-28T06:28:14;67.07;;;34.22;;
27957;SDS011;15295;42.658;23.374;2023-02-28T06:30:54;77.35;;;35.67;;
27957;SDS011;15295;42.658;23.374;2023-02-28T06:33:20;79.45;;;34.47;;
27957;SDS011;15295;42.658;23.374;2023-02-28T06:35:52;82.80;;;36.72;;
27957;SDS011;15295;42.658;23.374;2023-02-28T06:38:17;78.15;;;37.65;;
27957;SDS011;15295;42.658;23.374;2023-02-28T06:40:52;82.35;;;36.88;;
27957;SDS011;15295;42.658;23.374;2023-02-28T06:43:24;83.90;;;38.85;;
27957;SDS011;15295;42.658;23.374;2023-02-28T06:45:54;80.95;;;37.20;;
27957;SDS011;15295;42.658;23.374;2023-02-28T06:48:21;77.45;;;37.80;;
27957;SDS011;15295;42.658;23.374;2023-02-28T06:50:47;79.22;;;38.42;;
27957;SDS011;15295;42.658;23.374;2023-02-28T06:53:20;73.32;;;37.38;;
27957;SDS011;15295;42.658;23.374;2023-02-28T06:55:47;70.55;;;36.83;;
27957;SDS011;15295;42.658;23.374;2023-02-28T06:58:14;69.15;;;35.50;;
27957;SDS011;15295;42.658;23.374;2023-02-28T07:00:50;72.40;;;36.33;;
27957;SDS011;15295;42.658;23.374;2023-02-28T07:03:23;64.90;;;34.92;;
27957;SDS011;15295;42.658;23.374;2023-02-28T07:05:52;67.40;;;33.75;;
27957;SDS011;15295;42.658;23.374;2023-02-28T07:08:21;61.25;;;33.53;;
27957;SDS011;15295;42.658;23.374;2023-02-28T07:10:52;60.47;;;32.95;;
27957;SDS011;15295;42.658;23.374;2023-02-28T07:13:23;60.55;;;32.95;;
27957;SDS011;15295;42.658;23.374;2023-02-28T07:15:59;62.03;;;33.70;;
27957;SDS011;15295;42.658;23.374;2023-02-28T07:18:29;56.67;;;30.98;;
27957;SDS011;15295;42.658;23.374;2023-02-28T07:20:56;61.30;;;32.08;;
27957;SDS011;15295;42.658;23.374;2023-02-28T07:23:22;57.95;;;31.55;;
27957;SDS011;15295;42.658;23.374;2023-02-28T07:26:16;60.05;;;32.35;;
27957;SDS011;15295;42.658;23.374;2023-02-28T07:28:47;58.35;;;29.75;;
27957;SDS011;15295;42.658;23.374;2023-02-28T07:31:41;54.58;;;30.48;;
27957;SDS011;15295;42.658;23.374;2023-02-28T07:34:07;50.95;;;28.90;;
27957;SDS011;15295;42.658;23.374;2023-02-28T07:36:36;51.60;;;28.85;;
27957;SDS011;15295;42.658;23.374;2023-02-28T07:39:03;52.80;;;27.15;;
27957;SDS011;15295;42.658;23.374;2023-02-28T07:41:35;52.88;;;27.50;;
27957;SDS011;15295;42.658;23.374;2023-02-28T07:44:04;51.72;;;27.60;;
27957;SDS011;15295;42.658;23.374;2023-02-28T07:46:30;46.22;;;26.80;;
27957;SDS011;15295;42.658;23.374;2023-02-28T07:49:01;56.60;;;28.33;;
27957;SDS011;15295;42.658;23.374;2023-02-28T07:51:28;47.65;;;26.98;;
27957;SDS011;15295;42.658;23.374;2023-02-28T07:53:54;51.30;;;28.60;;
27957;SDS011;15295;42.658;23.374;2023-02-28T07:56:21;57.03;;;28.88;;
27957;SDS011;15295;42.658;23.374;2023-02-28T07:58:49;53.67;;;28.33;;
27957;SDS011;15295;42.658;23.374;2023-02-28T08:01:14;50.30;;;27.63;;
27957;SDS011;15295;42.658;23.374;2023-02-28T08:03:40;46.42;;;26.40;;
27957;SDS011;15295;42.658;23.374;2023-02-28T08:06:06;52.92;;;28.23;;
27957;SDS011;15295;42.658;23.374;2023-02-28T08:08:34;51.63;;;30.23;;
27957;SDS011;15295;42.658;23.374;2023-02-28T08:11:00;53.00;;;29.27;;
27957;SDS011;15295;42.658;23.374;2023-02-28T08:13:27;54.10;;;30.23;;
27957;SDS011;15295;42.658;23.374;2023-02-28T08:15:55;62.67;;;32.08;;
27957;SDS011;15295;42.658;23.374;2023-02-28T08:18:21;62.00;;;30.65;;
27957;SDS011;15295;42.658;23.374;2023-02-28T08:20:47;65.35;;;32.15;;
27957;SDS011;15295;42.658;23.374;2023-02-28T08:23:13;56.58;;;30.08;;
27957;SDS011;15295;42.658;23.374;2023-02-28T08:25:40;55.83;;;29.00;;
27957;SDS011;15295;42.658;23.374;2023-02-28T08:28:06;61.42;;;27.27;;
27957;SDS011;15295;42.658;23.374;2023-02-28T08:30:32;57.83;;;28.10;;
27957;SDS011;15295;42.658;23.374;2023-02-28T08:32:57;57.95;;;25.88;;
27957;SDS011;15295;42.658;23.374;2023-02-28T08:35:23;56.42;;;25.90;;
27957;SDS011;15295;42.658;23.374;2023-02-28T08:37:49;55.42;;;26.15;;
27957;SDS011;15295;42.658;23.374;2023-02-28T08:40:16;69.97;;;29.08;;
27957;SDS011;15295;42.658;23.374;2023-02-28T08:42:47;49.70;;;26.13;;
27957;SDS011;15295;42.658;23.374;2023-02-28T08:45:13;52.42;;;25.25;;
27957;SDS011;15295;42.658;23.374;2023-02-28T08:47:40;55.13;;;26.73;;
27957;SDS011;15295;42.658;23.374;2023-02-28T08:50:05;52.58;;;24.00;;
27957;SDS011;15295;42.658;23.374;2023-02-28T08:52:32;46.65;;;23.83;;
27957;SDS011;15295;42.658;23.374;2023-02-28T08:54:57;53.20;;;25.17;;
27957;SDS011;15295;42.658;23.374;2023-02-28T08:57:24;55.17;;;26.75;;
27957;SDS011;15295;42.658;23.374;2023-02-28T08:59:51;48.75;;;22.88;;
27957;SDS011;15295;42.658;23.374;2023-02-28T09:02:17;48.13;;;22.55;;
27957;SDS011;15295;42.658;23.374;2023-02-28T09:04:43;40.38;;;20.25;;
27957;SDS011;15295;42.658;23.374;2023-02-28T09:10:10;37.95;;;21.17;;
27957;SDS011;15295;42.658;23.374;2023-02-28T09:16:16;49.42;;;20.90;;
27957;SDS011;15295;42.658;23.374;2023-02-28T09:18:42;40.30;;;21.77;;
27957;SDS011;15295;42.658;23.374;2023-02-28T09:21:17;46.83;;;21.85;;
27957;SDS011;15295;42.658;23.374;2023-02-28T09:23:44;46.65;;;22.08;;
27957;SDS011;15295;42.658;23.374;2023-02-28T09:26:23;39.47;;;20.58;;
27957;SDS011;15295;42.658;23.374;2023-02-28T09:29:00;40.47;;;20.70;;
27957;SDS011;15295;42.658;23.374;2023-02-28T09:31:27;39.78;;;21.73;;
27957;SDS011;15295;42.658;23.374;2023-02-28T09:33:55;46.60;;;21.10;;
27957;SDS011;15295;42.658;23.374;2023-02-28T09:36:25;42.70;;;20.75;;
27957;SDS011;15295;42.658;23.374;2023-02-28T09:38:58;42.28;;;20.50;;
27957;SDS011;15295;42.658;23.374;2023-02-28T09:41:29;38.25;;;19.23;;
27957;SDS011;15295;42.658;23.374;2023-02-28T09:44:05;36.40;;;19.10;;
27957;SDS011;15295;42.658;23.374;2023-02-28T09:46:40;38.67;;;20.15;;
27957;SDS011;15295;42.658;23.374;2023-02-28T09:49:16;37.75;;;19.55;;
27957;SDS011;15295;42.658;23.374;2023-02-28T09:54:17;36.05;;;18.25;;
27957;SDS011;15295;42.658;23.374;2023-02-28T09:56:51;44.25;;;18.33;;
27957;SDS011;15295;42.658;23.374;2023-02-28T10:02:17;34.63;;;17.20;;
27957;SDS011;15295;42.658;23.374;2023-02-28T10:10:27;35.80;;;17.25;;
27957;SDS011;15295;42.658;23.374;2023-02-28T10:12:59;36.03;;;16.77;;
27957;SDS011;15295;42.658;23.374;2023-02-28T10:15:29;35.08;;;16.80;;
27957;SDS011;15295;42.658;23.374;2023-02-28T10:18:03;37.22;;;17.73;;
27957;SDS011;15295;42.658;23.374;2023-02-28T10:20:34;42.38;;;16.58;;
27957;SDS011;15295;42.658;23.374;2023-02-28T10:23:09;35.50;;;15.70;;
27957;SDS011;15295;42.658;23.374;2023-02-28T10:25:47;31.25;;;17.10;;
27957;SDS011;15295;42.658;23.374;2023-02-28T10:28:22;31.38;;;16.45;;
27957;SDS011;15295;42.658;23.374;2023-02-28T10:30:51;33.60;;;17.30;;
27957;SDS011;15295;42.658;23.374;2023-02-28T10:35:59;35.58;;;17.17;;
27957;SDS011;15295;42.658;23.374;2023-02-28T10:43:33;31.95;;;15.20;;
27957;SDS011;15295;42.658;23.374;2023-02-28T10:46:02;33.90;;;15.00;;
27957;SDS011;15295;42.658;23.374;2023-02-28T10:48:41;32.72;;;16.15;;
27957;SDS011;15295;42.658;23.374;2023-02-28T10:51:13;31.77;;;15.82;;
27957;SDS011;15295;42.658;23.374;2023-02-28T10:56:20;28.92;;;14.23;;
27957;SDS011;15295;42.658;23.374;2023-02-28T11:04:00;35.40;;;15.68;;
27957;SDS011;15295;42.658;23.374;2023-02-28T11:06:26;33.28;;;16.17;;
27957;SDS011;15295;42.658;23.374;2023-02-28T11:08:55;27.27;;;15.43;;
27957;SDS011;15295;42.658;23.374;2023-02-28T11:11:24;34.90;;;16.10;;
27957;SDS011;15295;42.658;23.374;2023-02-28T11:13:52;31.67;;;15.70;;
27957;SDS011;15295;42.658;23.374;2023-02-28T11:16:21;37.58;;;18.33;;
27957;SDS011;15295;42.658;23.374;2023-02-28T11:18:59;36.85;;;16.67;;
27957;SDS011;15295;42.658;23.374;2023-02-28T11:21:34;34.90;;;15.98;;
27957;SDS011;15295;42.658;23.374;2023-02-28T11:27:25;39.55;;;18.13;;
27957;SDS011;15295;42.658;23.374;2023-02-28T11:30:41;31.27;;;16.67;;
27957;SDS011;15295;42.658;23.374;2023-02-28T11:33:55;29.38;;;16.30;;
27957;SDS011;15295;42.658;23.374;2023-02-28T11:36:57;36.03;;;17.92;;
27957;SDS011;15295;42.658;23.374;2023-02-28T11:39:44;37.58;;;18.10;;
27957;SDS011;15295;42.658;23.374;2023-02-28T11:56:23;33.38;;;17.73;;
27957;SDS011;15295;42.658;23.374;2023-02-28T12:02:20;39.20;;;19.15;;
27957;SDS011;15295;42.658;23.374;2023-02-28T12:22:55;40.78;;;19.63;;
27957;SDS011;15295;42.658;23.374;2023-02-28T12:28:20;41.78;;;19.10;;
27957;SDS011;15295;42.658;23.374;2023-02-28T12:31:01;39.17;;;19.88;;
27957;SDS011;15295;42.658;23.374;2023-02-28T12:33:40;44.60;;;17.88;;
27957;SDS011;15295;42.658;23.374;2023-02-28T12:36:11;37.45;;;17.27;;
27957;SDS011;15295;42.658;23.374;2023-02-28T12:39:00;35.63;;;18.63;;
27957;SDS011;15295;42.658;23.374;2023-02-28T12:41:56;36.10;;;16.55;;
27957;SDS011;15295;42.658;23.374;2023-02-28T12:45:46;38.05;;;17.08;;
27957;SDS011;15295;42.658;23.374;2023-02-28T12:48:08;37.50;;;17.48;;
27957;SDS011;15295;42.658;23.374;2023-02-28T12:54:12;33.40;;;15.90;;
27957;SDS011;15295;42.658;23.374;2023-02-28T12:57:09;38.40;;;17.92;;
27957;SDS011;15295;42.658;23.374;2023-02-28T12:59:57;40.05;;;17.15;;
27957;SDS011;15295;42.658;23.374;2023-02-28T13:09:30;36.75;;;17.45;;
27957;SDS011;15295;42.658;23.374;2023-02-28T13:11:55;29.98;;;16.10;;
27957;SDS011;15295;42.658;23.374;2023-02-28T13:14:28;36.53;;;17.10;;
27957;SDS011;15295;42.658;23.374;2023-02-28T13:17:11;39.53;;;16.60;;
27957;SDS011;15295;42.658;23.374;2023-02-28T13:20:13;35.88;;;16.70;;
27957;SDS011;15295;42.658;23.374;2023-02-28T13:27:53;37.63;;;16.13;;
27957;SDS011;15295;42.658;23.374;2023-02-28T13:33:30;32.83;;;13.85;;
27957;SDS011;15295;42.658;23.374;2023-02-28T13:42:34;33.08;;;13.32;;
27957;SDS011;15295;42.658;23.374;2023-02-28T13:45:28;30.80;;;12.75;;
27957;SDS011;15295;42.658;23.374;2023-02-28T13:48:04;25.27;;;13.23;;
27957;SDS011;15295;42.658;23.374;2023-02-28T13:50:43;31.15;;;14.55;;
27957;SDS011;15295;42.658;23.374;2023-02-28T14:04:44;31.25;;;13.82;;
27957;SDS011;15295;42.658;23.374;2023-02-28T14:07:16;24.30;;;13.35;;
27957;SDS011;15295;42.658;23.374;2023-02-28T14:41:29;39.28;;;15.55;;
27957;SDS011;15295;42.658;23.374;2023-02-28T14:44:14;31.10;;;14.07;;
27957;SDS011;15295;42.658;23.374;2023-02-28T14:49:30;33.30;;;15.40;;
27957;SDS011;15295;42.658;23.374;2023-02-28T14:54:55;32.38;;;14.13;;
27957;SDS011;15295;42.658;23.374;2023-02-28T14:57:25;35.42;;;14.77;;
27957;SDS011;15295;42.658;23.374;2023-02-28T15:00:00;32.60;;;14.10;;
27957;SDS011;15295;42.658;23.374;2023-02-28T15:08:13;34.88;;;15.15;;
27957;SDS011;15295;42.658;23.374;2023-02-28T15:11:24;33.03;;;14.90;;
27957;SDS011;15295;42.658;23.374;2023-02-28T15:13:48;34.88;;;14.20;;
27957;SDS011;15295;42.658;23.374;2023-02-28T15:16:40;19.60;;;9.95;;
27957;SDS011;15295;42.658;23.374;2023-02-28T15:19:13;25.70;;;10.93;;
27957;SDS011;15295;42.658;23.374;2023-02-28T15:22:01;29.77;;;11.82;;
27957;SDS011;15295;42.658;23.374;2023-02-28T15:24:50;30.33;;;11.32;;
27957;SDS011;15295;42.658;23.374;2023-02-28T15:27:27;24.67;;;11.23;;
27957;SDS011;15295;42.658;23.374;2023-02-28T15:29:58;25.15;;;11.77;;
27957;SDS011;15295;42.658;23.374;2023-02-28T15:34:54;32.63;;;11.25;;
27957;SDS011;15295;42.658;23.374;2023-02-28T15:39:55;28.52;;;11.45;;
27957;SDS011;15295;42.658;23.374;2023-02-28T15:42:23;26.50;;;11.65;;
27957;SDS011;15295;42.658;23.374;2023-02-28T15:45:01;23.65;;;11.23;;
27957;SDS011;15295;42.658;23.374;2023-02-28T15:47:27;26.50;;;11.68;;
27957;SDS011;15295;42.658;23.374;2023-02-28T15:50:10;20.67;;;10.55;;
27957;SDS011;15295;42.658;23.374;2023-02-28T15:52:59;22.88;;;9.63;;
27957;SDS011;15295;42.658;23.374;2023-02-28T15:55:42;21.70;;;11.05;;
27957;SDS011;15295;42.658;23.374;2023-02-28T15:58:13;21.67;;;11.50;;
27957;SDS011;15295;42.658;23.374;2023-02-28T16:00:58;16.87;;;10.27;;
27957;SDS011;15295;42.658;23.374;2023-02-28T16:03:57;24.23;;;12.93;;
27957;SDS011;15295;42.658;23.374;2023-02-28T16:06:43;26.58;;;10.57;;
27957;SDS011;15295;42.658;23.374;2023-02-28T16:09:13;38.40;;;16.70;;
27957;SDS011;15295;42.658;23.374;2023-02-28T16:12:01;24.75;;;13.05;;
27957;SDS011;15295;42.658;23.374;2023-02-28T16:14:28;21.13;;;12.10;;
27957;SDS011;15295;42.658;23.374;2023-02-28T16:17:13;22.35;;;12.35;;
27957;SDS011;15295;42.658;23.374;2023-02-28T16:19:46;25.70;;;13.65;;
27957;SDS011;15295;42.658;23.374;2023-02-28T16:22:30;27.52;;;12.07;;
27957;SDS011;15295;42.658;23.374;2023-02-28T16:24:55;27.38;;;12.15;;
27957;SDS011;15295;42.658;23.374;2023-02-28T16:27:27;22.35;;;10.77;;
27957;SDS011;15295;42.658;23.374;2023-02-28T16:29:57;19.45;;;10.10;;
27957;SDS011;15295;42.658;23.374;2023-02-28T16:35:11;16.98;;;9.35;;
27957;SDS011;15295;42.658;23.374;2023-02-28T16:37:39;19.38;;;10.10;;
27957;SDS011;15295;42.658;23.374;2023-02-28T16:40:04;17.88;;;9.23;;
27957;SDS011;15295;42.658;23.374;2023-02-28T16:42:30;16.60;;;8.85;;
27957;SDS011;15295;42.658;23.374;2023-02-28T16:44:56;22.13;;;10.18;;
27957;SDS011;15295;42.658;23.374;2023-02-28T16:47:22;16.92;;;9.05;;
27957;SDS011;15295;42.658;23.374;2023-02-28T16:49:49;16.48;;;8.68;;
27957;SDS011;15295;42.658;23.374;2023-02-28T16:52:20;16.85;;;8.57;;
27957;SDS011;15295;42.658;23.374;2023-02-28T16:54:45;14.70;;;7.88;;
27957;SDS011;15295;42.658;23.374;2023-02-28T16:57:17;15.82;;;8.10;;
27957;SDS011;15295;42.658;23.374;2023-02-28T16:59:48;14.35;;;8.10;;
27957;SDS011;15295;42.658;23.374;2023-02-28T17:02:16;15.45;;;8.77;;
27957;SDS011;15295;42.658;23.374;2023-02-28T17:04:45;18.95;;;8.77;;
27957;SDS011;15295;42.658;23.374;2023-02-28T17:09:47;14.77;;;7.95;;
27957;SDS011;15295;42.658;23.374;2023-02-28T17:12:15;16.45;;;7.50;;
27957;SDS011;15295;42.658;23.374;2023-02-28T17:14:40;16.02;;;8.20;;
27957;SDS011;15295;42.658;23.374;2023-02-28T17:17:15;13.48;;;7.00;;
27957;SDS011;15295;42.658;23.374;2023-02-28T17:19:52;13.00;;;7.53;;
27957;SDS011;15295;42.658;23.374;2023-02-28T17:25:28;17.05;;;8.48;;
27957;SDS011;15295;42.658;23.374;2023-02-28T17:36:35;15.52;;;7.32;;
27957;SDS011;15295;42.658;23.374;2023-02-28T17:39:02;13.77;;;6.55;;
27957;SDS011;15295;42.658;23.374;2023-02-28T17:44:16;12.52;;;6.28;;
27957;SDS011;15295;42.658;23.374;2023-02-28T17:46:45;13.75;;;5.55;;
27957;SDS011;15295;42.658;23.374;2023-02-28T17:49:48;12.23;;;5.72;;
27957;SDS011;15295;42.658;23.374;2023-02-28T17:52:15;9.98;;;6.00;;
27957;SDS011;15295;42.658;23.374;2023-02-28T17:54:40;14.40;;;6.05;;
27957;SDS011;15295;42.658;23.374;2023-02-28T17:57:09;11.13;;;6.00;;
27957;SDS011;15295;42.658;23.374;2023-02-28T17:59:41;11.32;;;5.55;;
27957;SDS011;15295;42.658;23.374;2023-02-28T18:02:11;12.18;;;5.15;;
27957;SDS011;15295;42.658;23.374;2023-02-28T18:04:39;9.63;;;5.53;;
27957;SDS011;15295;42.658;23.374;2023-02-28T18:07:05;10.13;;;5.25;;
27957;SDS011;15295;42.658;23.374;2023-02-28T18:09:34;6.75;;;4.63;;
27957;SDS011;15295;42.658;23.374;2023-02-28T18:12:03;9.93;;;5.00;;
27957;SDS011;15295;42.658;23.374;2023-02-28T18:14:38;14.48;;;5.18;;
27957;SDS011;15295;42.658;23.374;2023-02-28T18:17:05;8.77;;;5.05;;
27957;SDS011;15295;42.658;23.374;2023-02-28T18:19:37;10.35;;;4.32;;
27957;SDS011;15295;42.658;23.374;2023-02-28T18:23:06;9.45;;;4.85;;
27957;SDS011;15295;42.658;23.374;2023-02-28T18:25:41;8.27;;;4.50;;
27957;SDS011;15295;42.658;23.374;2023-02-28T18:31:12;8.00;;;4.68;;
27957;SDS011;15295;42.658;23.374;2023-02-28T18:33:43;10.43;;;4.63;;
27957;SDS011;15295;42.658;23.374;2023-02-28T18:36:14;8.55;;;4.93;;
27957;SDS011;15295;42.658;23.374;2023-02-28T18:38:55;11.52;;;5.38;;
27957;SDS011;15295;42.658;23.374;2023-02-28T18:47:18;14.70;;;5.78;;
27957;SDS011;15295;42.658;23.374;2023-02-28T18:52:23;12.00;;;5.65;;
27957;SDS011;15295;42.658;23.374;2023-02-28T18:55:32;15.10;;;5.82;;
27957;SDS011;15295;42.658;23.374;2023-02-28T19:00:41;10.13;;;5.80;;
27957;SDS011;15295;42.658;23.374;2023-02-28T19:03:35;12.23;;;6.95;;
27957;SDS011;15295;42.658;23.374;2023-02-28T19:09:16;12.23;;;6.40;;
27957;SDS011;15295;42.658;23.374;2023-02-28T19:17:38;11.85;;;7.57;;
27957;SDS011;15295;42.658;23.374;2023-02-28T19:20:29;17.58;;;7.50;;
27957;SDS011;15295;42.658;23.374;2023-02-28T19:23:39;9.95;;;7.03;;
27957;SDS011;15295;42.658;23.374;2023-02-28T19:31:25;12.43;;;7.57;;